createdAt,value
2019-01-25T00:01:00.874Z,13.23
2019-01-25T00:03:30.679Z,13.50
2019-01-25T00:06:00.485Z,13.37
2019-01-25T00:08:30.303Z,14.20
2019-01-25T00:11:00.468Z,13.10
2019-01-25T00:13:30.270Z,13.57
2019-01-25T00:16:00.020Z,14.13
2019-01-25T00:18:29.832Z,14.30
2019-01-25T00:20:59.624Z,12.60
2019-01-25T00:23:29.420Z,13.97
2019-01-25T00:25:59.158Z,13.60
2019-01-25T00:28:28.939Z,14.00
2019-01-25T00:30:58.700Z,14.23
2019-01-25T00:33:28.368Z,13.70
2019-01-25T00:35:58.213Z,13.50
2019-01-25T00:38:28.127Z,12.90
2019-01-25T00:40:58.074Z,12.87
2019-01-25T00:43:27.784Z,13.60
2019-01-25T00:45:57.525Z,13.00
2019-01-25T00:48:27.301Z,13.77
2019-01-25T00:50:57.020Z,12.93
2019-01-25T00:53:27.175Z,13.50
2019-01-25T00:55:57.191Z,13.40
2019-01-25T00:58:27.007Z,13.10
2019-01-25T01:00:56.783Z,13.20
2019-01-25T01:03:26.624Z,13.27
2019-01-25T01:05:56.420Z,12.30
2019-01-25T01:08:26.215Z,13.53
2019-01-25T01:10:55.938Z,13.77
2019-01-25T01:13:25.720Z,13.23
2019-01-25T01:15:55.554Z,12.70
2019-01-25T01:18:25.712Z,13.60
2019-01-25T01:20:55.480Z,12.87
2019-01-25T01:23:25.288Z,13.37
2019-01-25T01:25:55.000Z,13.43
2019-01-25T01:28:25.054Z,12.73
2019-01-25T01:30:54.777Z,12.27
2019-01-25T01:33:24.548Z,13.23
2019-01-25T01:35:54.283Z,12.30
2019-01-25T01:38:24.066Z,12.87
2019-01-25T01:40:53.818Z,13.40
2019-01-25T01:43:23.509Z,12.27
2019-01-25T01:45:53.333Z,13.03
2019-01-25T01:48:23.030Z,13.00
2019-01-25T01:50:52.734Z,13.30
2019-01-25T01:53:22.470Z,12.80
2019-01-25T01:55:52.215Z,12.57
2019-01-25T01:58:22.184Z,13.63
2019-01-25T02:00:51.979Z,12.13
2019-01-25T02:03:21.759Z,12.07
2019-01-25T02:05:51.564Z,12.87
2019-01-25T02:08:21.310Z,12.53
2019-01-25T02:10:51.033Z,13.60
2019-01-25T02:13:20.765Z,12.33
2019-01-25T02:15:50.871Z,13.00
2019-01-25T02:18:20.567Z,13.50
2019-01-25T02:20:50.401Z,12.97
2019-01-25T02:23:20.100Z,13.03
2019-01-25T02:25:49.906Z,13.20
2019-01-25T02:28:20.024Z,12.33
2019-01-25T02:30:49.847Z,12.97
2019-01-25T02:33:19.619Z,12.60
2019-01-25T02:35:49.429Z,12.80
2019-01-25T02:38:19.140Z,12.30
2019-01-25T02:40:48.757Z,12.73
2019-01-25T02:43:18.417Z,11.80
2019-01-25T02:45:48.400Z,13.43
2019-01-25T02:48:18.195Z,12.50
2019-01-25T02:50:48.132Z,12.33
2019-01-25T02:53:17.969Z,12.10
2019-01-25T02:55:47.676Z,12.10
2019-01-25T02:58:17.406Z,12.27
2019-01-25T03:00:47.131Z,12.43
2019-01-25T03:03:16.858Z,12.63
2019-01-25T03:05:46.684Z,11.93
2019-01-25T03:08:16.402Z,12.47
2019-01-25T03:10:47.228Z,13.20
2019-01-25T03:13:17.464Z,12.93
2019-01-25T03:15:47.687Z,12.93
2019-01-25T03:18:17.706Z,12.80
2019-01-25T03:20:47.478Z,12.47
2019-01-25T03:23:17.522Z,12.33
2019-01-25T03:25:47.331Z,12.80
2019-01-25T03:28:17.358Z,12.83
2019-01-25T03:30:47.169Z,12.87
2019-01-25T03:33:16.889Z,13.07
2019-01-25T03:35:46.682Z,12.37
2019-01-25T03:38:16.478Z,13.13
2019-01-25T03:40:46.281Z,12.47
2019-01-25T03:43:15.939Z,12.90
2019-01-25T03:45:46.040Z,12.63
2019-01-25T03:48:15.811Z,12.40
2019-01-25T03:50:45.561Z,12.97
2019-01-25T03:53:15.210Z,12.33
2019-01-25T03:55:44.933Z,11.30
2019-01-25T03:58:14.716Z,12.47
2019-01-25T04:00:44.543Z,12.73
2019-01-25T04:03:14.275Z,12.60
2019-01-25T04:05:44.009Z,12.80
2019-01-25T04:08:13.647Z,13.17
2019-01-25T04:10:43.747Z,12.50
2019-01-25T04:13:13.507Z,13.23
2019-01-25T04:15:43.359Z,12.87
2019-01-25T04:18:13.117Z,11.90
2019-01-25T04:20:43.206Z,13.10
2019-01-25T04:23:13.021Z,13.13
2019-01-25T04:25:45.329Z,12.70
2019-01-25T04:28:14.064Z,12.37
2019-01-25T04:30:43.837Z,12.00
2019-01-25T04:33:13.488Z,13.10
2019-01-25T04:35:43.173Z,13.30
2019-01-25T04:38:12.820Z,12.97
2019-01-25T04:40:42.936Z,13.50
2019-01-25T04:43:12.630Z,11.40
2019-01-25T04:45:42.325Z,12.60
2019-01-25T04:48:13.886Z,13.83
2019-01-25T04:50:43.604Z,13.73
2019-01-25T04:53:13.347Z,12.67
2019-01-25T04:55:43.077Z,11.73
2019-01-25T04:58:14.766Z,11.80
2019-01-25T05:00:44.575Z,12.23
2019-01-25T05:03:14.963Z,13.33
2019-01-25T05:05:45.443Z,11.60
2019-01-25T05:08:17.118Z,11.93
2019-01-25T05:10:46.889Z,12.10
2019-01-25T05:13:16.609Z,12.10
2019-01-25T05:15:46.354Z,12.90
2019-01-25T05:18:16.030Z,12.40
2019-01-25T05:20:45.826Z,12.07
2019-01-25T05:23:15.463Z,12.40
2019-01-25T05:25:45.165Z,12.37
2019-01-25T05:28:16.631Z,12.30
2019-01-25T05:30:51.577Z,12.10
2019-01-25T05:33:21.355Z,12.30
2019-01-25T05:35:51.091Z,11.77
2019-01-25T05:38:20.817Z,12.83
2019-01-25T05:40:50.564Z,12.37
2019-01-25T05:43:20.366Z,11.80
2019-01-25T05:45:50.429Z,12.97
2019-01-25T05:48:21.716Z,13.83
2019-01-25T05:50:53.120Z,13.23
2019-01-25T05:53:22.827Z,13.27
2019-01-25T05:55:52.619Z,12.80
2019-01-25T05:58:22.247Z,13.13
2019-01-25T06:00:52.014Z,13.03
2019-01-25T06:03:21.802Z,12.90
2019-01-25T06:05:56.089Z,13.20
2019-01-25T06:08:30.377Z,14.20
2019-01-25T06:11:02.031Z,12.90
2019-01-25T06:13:32.093Z,13.27
2019-01-25T06:16:01.917Z,13.27
2019-01-25T06:18:31.671Z,13.70
2019-01-25T06:21:01.657Z,13.10
2019-01-25T06:23:31.479Z,12.40
2019-01-25T06:26:01.370Z,12.80
2019-01-25T06:28:31.148Z,13.67
2019-01-25T06:31:00.919Z,13.50
2019-01-25T06:33:30.880Z,13.50
2019-01-25T06:36:01.700Z,13.37
2019-01-25T06:38:31.399Z,13.20
2019-01-25T06:41:01.246Z,13.03
2019-01-25T06:43:31.358Z,13.40
2019-01-25T06:46:01.173Z,14.33
2019-01-25T06:48:31.193Z,13.33
2019-01-25T06:51:00.899Z,12.73
2019-01-25T06:53:30.601Z,13.10
2019-01-25T06:56:00.444Z,14.13
2019-01-25T06:58:43.882Z,12.47
2019-01-25T07:01:24.234Z,12.90
2019-01-25T07:03:54.004Z,12.93
2019-01-25T07:06:27.434Z,12.27
2019-01-25T07:08:56.563Z,12.90
2019-01-25T07:11:28.907Z,13.60
2019-01-25T07:13:58.910Z,12.57
2019-01-25T07:16:28.664Z,13.90
2019-01-25T07:18:58.316Z,13.07
2019-01-25T07:21:28.446Z,14.97
2019-01-25T07:23:58.146Z,12.60
2019-01-25T07:26:27.855Z,13.60
2019-01-25T07:28:59.435Z,13.40
2019-01-25T07:31:29.428Z,13.00
2019-01-25T07:33:59.309Z,12.40
2019-01-25T07:36:29.246Z,15.13
2019-01-25T07:38:58.895Z,13.33
2019-01-25T07:41:29.015Z,13.50
2019-01-25T07:43:58.706Z,13.53
2019-01-25T07:46:28.438Z,13.40
2019-01-25T07:49:00.786Z,13.17
2019-01-25T07:51:30.794Z,14.40
2019-01-25T07:54:00.694Z,12.30
2019-01-25T07:56:30.318Z,12.57
2019-01-25T07:59:01.961Z,13.03
2019-01-25T08:01:32.489Z,13.03
2019-01-25T08:04:02.218Z,13.20
2019-01-25T08:06:31.929Z,13.40
2019-01-25T08:09:01.750Z,13.70
2019-01-25T08:11:32.818Z,12.70
2019-01-25T08:14:02.556Z,12.80
2019-01-25T08:16:32.292Z,12.20
2019-01-25T08:19:02.124Z,13.43
2019-01-25T08:21:32.019Z,13.40
2019-01-25T08:24:01.765Z,12.53
2019-01-25T08:26:31.855Z,12.00
2019-01-25T08:29:01.666Z,13.03
2019-01-25T08:31:31.431Z,12.20
2019-01-25T08:34:01.077Z,11.93
2019-01-25T08:36:30.888Z,11.90
2019-01-25T08:39:00.645Z,12.70
2019-01-25T08:41:30.332Z,11.97
2019-01-25T08:43:59.977Z,12.10
2019-01-25T08:46:29.593Z,12.30
2019-01-25T08:48:59.432Z,11.90
2019-01-25T08:51:29.188Z,11.70
2019-01-25T08:53:58.884Z,12.33
2019-01-25T08:56:28.590Z,12.27
2019-01-25T08:58:58.928Z,12.20
2019-01-25T09:01:28.871Z,10.83
2019-01-25T09:03:58.502Z,11.53
2019-01-25T09:06:28.169Z,12.00
2019-01-25T09:08:57.785Z,12.63
2019-01-25T09:11:27.745Z,12.20
2019-01-25T09:13:57.772Z,12.30
2019-01-25T09:16:27.438Z,12.23
2019-01-25T09:18:57.137Z,11.93
2019-01-25T09:21:26.878Z,11.90
2019-01-25T09:23:56.600Z,12.73
2019-01-25T09:26:26.302Z,12.10
2019-01-25T09:28:56.057Z,12.33
2019-01-25T09:31:25.665Z,12.20
2019-01-25T09:33:55.302Z,12.20
2019-01-25T09:36:25.024Z,11.87
2019-01-25T09:38:54.698Z,12.23
2019-01-25T09:41:24.885Z,12.00
2019-01-25T09:43:54.577Z,12.60
2019-01-25T09:46:24.274Z,12.60
2019-01-25T09:48:53.917Z,12.17
2019-01-25T09:51:23.585Z,13.57
2019-01-25T09:53:53.290Z,12.47
2019-01-25T09:56:22.898Z,12.33
2019-01-25T09:58:52.643Z,12.40
2019-01-25T10:01:22.384Z,12.90
2019-01-25T10:03:52.111Z,12.70
2019-01-25T10:06:22.183Z,12.47
2019-01-25T10:08:51.973Z,12.70
2019-01-25T10:11:22.007Z,12.47
2019-01-25T10:13:51.699Z,12.80
2019-01-25T10:16:21.768Z,11.53
2019-01-25T10:18:51.879Z,11.80
2019-01-25T10:21:21.712Z,12.13
2019-01-25T10:23:51.545Z,12.50
2019-01-25T10:26:21.213Z,12.20
2019-01-25T10:28:50.938Z,11.70
2019-01-25T10:31:20.758Z,12.27
2019-01-25T10:33:50.835Z,13.00
2019-01-25T10:36:20.658Z,12.80
2019-01-25T10:38:50.353Z,12.97
2019-01-25T10:41:20.373Z,13.20
2019-01-25T10:43:50.605Z,13.10
2019-01-25T10:46:20.403Z,13.10
2019-01-25T10:48:50.067Z,12.17
2019-01-25T10:51:19.694Z,13.07
2019-01-25T10:53:49.480Z,12.63
2019-01-25T10:56:19.253Z,13.20
2019-01-25T10:58:48.864Z,12.43
2019-01-25T11:01:18.595Z,12.73
2019-01-25T11:03:48.365Z,11.87
2019-01-25T11:06:18.489Z,12.90
2019-01-25T11:08:48.251Z,12.17
2019-01-25T11:11:18.025Z,12.37
2019-01-25T11:13:47.725Z,12.00
2019-01-25T11:16:17.473Z,13.37
2019-01-25T11:18:47.243Z,12.37
2019-01-25T11:21:17.202Z,13.40
2019-01-25T11:23:47.386Z,12.60
2019-01-25T11:26:17.182Z,12.90
2019-01-25T11:28:47.017Z,12.40
2019-01-25T11:31:16.724Z,12.00
2019-01-25T11:33:46.558Z,11.70
2019-01-25T11:36:16.337Z,12.80
2019-01-25T11:38:46.091Z,13.03
2019-01-25T11:41:15.803Z,12.70
2019-01-25T11:43:45.552Z,13.03
2019-01-25T11:46:15.445Z,13.90
2019-01-25T11:48:45.237Z,12.90
2019-01-25T11:51:15.020Z,12.80
2019-01-25T11:53:44.714Z,13.27
2019-01-25T11:56:14.943Z,13.37
2019-01-25T11:58:44.630Z,13.40
2019-01-25T12:01:14.408Z,12.20
2019-01-25T12:03:44.058Z,12.70
2019-01-25T12:06:13.770Z,12.90
2019-01-25T12:08:43.802Z,13.50
2019-01-25T12:11:13.659Z,13.27
2019-01-25T12:13:43.439Z,13.20
2019-01-25T12:16:13.275Z,12.80
2019-01-25T12:18:43.168Z,12.80
2019-01-25T12:21:12.895Z,12.20
2019-01-25T12:23:42.667Z,12.33
2019-01-25T12:26:12.359Z,11.90
2019-01-25T12:28:42.288Z,12.03
2019-01-25T12:31:12.310Z,13.23
2019-01-25T12:33:41.993Z,11.43
2019-01-25T12:36:12.029Z,11.77
2019-01-25T12:38:41.725Z,11.90
2019-01-25T12:41:11.536Z,12.47
2019-01-25T12:43:41.578Z,11.77
2019-01-25T12:46:11.284Z,11.83
2019-01-25T12:48:40.904Z,12.73
2019-01-25T12:51:14.135Z,11.90
2019-01-25T12:53:43.869Z,12.50
2019-01-25T12:56:13.559Z,12.47
2019-01-25T12:58:43.296Z,12.30
2019-01-25T13:01:13.056Z,11.67
2019-01-25T13:03:42.795Z,11.83
2019-01-25T13:06:12.665Z,11.57
2019-01-25T13:08:42.354Z,11.87
2019-01-25T13:11:12.105Z,12.17
2019-01-25T13:13:41.808Z,12.30
2019-01-25T13:16:11.615Z,11.47
2019-01-25T13:18:41.323Z,11.90
2019-01-25T13:21:11.096Z,12.10
2019-01-25T13:23:41.122Z,12.80
2019-01-25T13:26:11.251Z,12.43
2019-01-25T13:28:41.866Z,11.67
2019-01-25T13:31:11.899Z,12.43
2019-01-25T13:33:41.721Z,12.27
2019-01-25T13:36:12.822Z,12.27
2019-01-25T13:38:42.516Z,11.83
2019-01-25T13:41:12.311Z,12.40
2019-01-25T13:43:42.027Z,13.13
2019-01-25T13:46:12.015Z,12.60
2019-01-25T13:48:41.778Z,12.07
2019-01-25T13:51:11.659Z,12.10
2019-01-25T13:53:41.400Z,13.07
2019-01-25T13:56:11.283Z,12.43
2019-01-25T13:58:40.910Z,12.60
2019-01-25T14:01:10.970Z,12.80
2019-01-25T14:03:41.119Z,12.90
2019-01-25T14:06:10.802Z,12.60
2019-01-25T14:08:40.550Z,12.00
2019-01-25T14:11:10.244Z,13.23
2019-01-25T14:13:46.637Z,11.47
2019-01-25T14:16:11.271Z,12.57
2019-01-25T14:18:44.904Z,13.03
2019-01-25T14:21:12.231Z,12.50
2019-01-25T14:23:42.029Z,12.63
2019-01-25T14:26:11.747Z,12.57
2019-01-25T14:28:41.554Z,12.43
2019-01-25T14:31:11.302Z,13.57
2019-01-25T14:33:40.919Z,12.00
2019-01-25T14:36:10.733Z,12.57
2019-01-25T14:38:40.706Z,13.37
2019-01-25T14:41:10.447Z,12.30
2019-01-25T14:43:40.077Z,12.83
2019-01-25T14:46:09.773Z,12.70
2019-01-25T14:48:39.397Z,13.57
2019-01-25T14:51:09.183Z,12.80
2019-01-25T14:53:38.890Z,12.70
2019-01-25T14:56:08.879Z,13.20
2019-01-25T14:58:38.690Z,12.97
2019-01-25T15:01:08.422Z,12.90
2019-01-25T15:03:38.528Z,12.83
2019-01-25T15:06:08.444Z,12.93
2019-01-25T15:08:38.437Z,13.07
2019-01-25T15:11:08.327Z,12.97
2019-01-25T15:13:38.327Z,12.10
2019-01-25T15:16:08.146Z,13.60
2019-01-25T15:18:37.956Z,12.80
2019-01-25T15:21:08.250Z,12.00
2019-01-25T15:23:38.195Z,14.00
2019-01-25T15:26:08.147Z,12.60
2019-01-25T15:28:38.018Z,13.27
2019-01-25T15:31:08.136Z,13.53
2019-01-25T15:33:38.163Z,13.17
2019-01-25T15:36:08.192Z,14.37
2019-01-25T15:38:38.247Z,13.80
2019-01-25T15:41:08.139Z,13.50
2019-01-25T15:43:38.041Z,14.20
2019-01-25T15:46:07.783Z,13.50
2019-01-25T15:48:38.810Z,13.90
2019-01-25T15:51:10.335Z,12.70
2019-01-25T15:53:40.273Z,14.40
2019-01-25T15:56:10.248Z,14.33
2019-01-25T15:58:40.160Z,13.67
2019-01-25T16:01:10.017Z,13.63
2019-01-25T16:03:39.827Z,13.17
2019-01-25T16:06:10.082Z,13.63
2019-01-25T16:08:40.041Z,14.10
2019-01-25T16:11:10.394Z,14.13
2019-01-25T16:13:40.345Z,13.40
2019-01-25T16:16:10.195Z,13.43
2019-01-25T16:18:40.115Z,13.87
2019-01-25T16:21:09.948Z,13.63
2019-01-25T16:23:39.914Z,13.90
2019-01-25T16:26:09.684Z,14.17
2019-01-25T16:28:39.647Z,14.00
2019-01-25T16:31:09.493Z,13.47
2019-01-25T16:33:39.334Z,13.30
2019-01-25T16:36:09.121Z,13.47
2019-01-25T16:38:38.930Z,13.43
2019-01-25T16:41:08.759Z,12.97
2019-01-25T16:43:38.636Z,13.13
2019-01-25T16:46:08.419Z,12.90
2019-01-25T16:48:38.635Z,13.67
2019-01-25T16:51:08.407Z,12.97
2019-01-25T16:53:38.228Z,12.93
2019-01-25T16:56:08.020Z,13.97
2019-01-25T16:58:37.928Z,12.40
2019-01-25T17:01:07.999Z,12.00
2019-01-25T17:03:38.011Z,14.30
2019-01-25T17:06:08.193Z,13.03
2019-01-25T17:08:38.114Z,13.17
2019-01-25T17:11:08.061Z,13.17
2019-01-25T17:13:38.082Z,12.97
2019-01-25T17:16:08.060Z,13.37
2019-01-25T17:18:37.841Z,12.97
2019-01-25T17:21:07.921Z,14.00
2019-01-25T17:23:37.857Z,13.63
2019-01-25T17:26:07.644Z,13.53
2019-01-25T17:28:37.443Z,13.50
2019-01-25T17:31:07.397Z,12.30
2019-01-25T17:33:37.336Z,13.43
2019-01-25T17:36:07.251Z,13.60
2019-01-25T17:38:37.272Z,13.57
2019-01-25T17:41:07.329Z,12.60
2019-01-25T17:43:37.436Z,13.40
2019-01-25T17:46:07.277Z,13.30
2019-01-25T17:48:37.217Z,13.80
2019-01-25T17:51:08.467Z,13.50
2019-01-25T17:53:39.982Z,13.00
2019-01-25T17:56:10.942Z,13.40
2019-01-25T17:58:40.856Z,13.27
2019-01-25T18:01:10.744Z,13.30
2019-01-25T18:03:40.435Z,13.80
2019-01-25T18:06:10.435Z,13.80
2019-01-25T18:08:40.301Z,13.10
2019-01-25T18:11:10.342Z,11.50
2019-01-25T18:13:40.326Z,11.90
2019-01-25T18:16:10.234Z,22.30
2019-01-25T18:18:40.073Z,24.50
2019-01-25T18:21:10.054Z,25.60
2019-01-25T18:23:39.851Z,25.87
2019-01-25T18:26:09.755Z,27.97
2019-01-25T18:28:41.492Z,25.30
2019-01-25T18:31:14.395Z,25.13
2019-01-25T18:33:44.380Z,22.83
2019-01-25T18:36:14.282Z,21.90
2019-01-25T18:38:45.049Z,22.37
2019-01-25T18:41:19.942Z,22.37
2019-01-25T18:43:55.688Z,22.40
2019-01-25T18:46:25.452Z,20.67
2019-01-25T18:48:58.550Z,21.03
2019-01-25T18:51:29.232Z,20.07
2019-01-25T18:53:59.154Z,21.83
2019-01-25T18:56:29.253Z,19.07
2019-01-25T18:58:59.209Z,19.40
2019-01-25T19:01:29.191Z,19.70
2019-01-25T19:03:59.919Z,19.13
2019-01-25T19:06:31.846Z,19.30
2019-01-25T19:09:01.786Z,19.33
2019-01-25T19:11:31.617Z,18.60
2019-01-25T19:14:01.509Z,19.07
2019-01-25T19:16:31.644Z,18.50
2019-01-25T19:19:01.372Z,18.83
2019-01-25T19:21:31.183Z,17.30
2019-01-25T19:24:00.974Z,17.40
2019-01-25T19:26:30.659Z,17.43
2019-01-25T19:29:00.409Z,16.80
2019-01-25T19:31:30.655Z,17.90
2019-01-25T19:34:00.502Z,17.20
2019-01-25T19:36:30.308Z,18.67
2019-01-25T19:38:59.943Z,17.33
2019-01-25T19:41:29.673Z,17.07
2019-01-25T19:43:59.310Z,16.97
2019-01-25T19:46:29.370Z,16.27
2019-01-25T19:48:59.028Z,16.00
2019-01-25T19:51:28.812Z,16.60
2019-01-25T19:53:58.530Z,16.37
2019-01-25T19:56:28.620Z,17.10
2019-01-25T19:58:58.307Z,16.43
2019-01-25T20:01:28.454Z,15.63
2019-01-25T20:03:58.165Z,15.27
2019-01-25T20:06:27.851Z,15.83
2019-01-25T20:08:57.629Z,15.40
2019-01-25T20:11:27.423Z,16.17
2019-01-25T20:13:57.244Z,15.60
2019-01-25T20:16:26.999Z,15.37
2019-01-25T20:18:56.739Z,14.67
2019-01-25T20:21:26.381Z,15.27
2019-01-25T20:23:56.457Z,14.20
2019-01-25T20:26:26.163Z,13.73
2019-01-25T20:28:56.089Z,14.80
2019-01-25T20:31:25.744Z,14.17
2019-01-25T20:33:55.800Z,14.30
2019-01-25T20:36:25.926Z,13.53
2019-01-25T20:38:55.694Z,13.70
2019-01-25T20:41:25.397Z,14.00
2019-01-25T20:43:55.129Z,13.00
2019-01-25T20:46:24.950Z,13.33
2019-01-25T20:48:54.996Z,14.00
2019-01-25T20:51:24.764Z,12.93
2019-01-25T20:53:54.458Z,12.63
2019-01-25T20:56:24.260Z,13.00
2019-01-25T20:58:53.873Z,12.57
2019-01-25T21:01:23.577Z,12.93
2019-01-25T21:03:53.287Z,13.07
2019-01-25T21:06:23.038Z,12.97
2019-01-25T21:08:52.751Z,11.90
2019-01-25T21:11:22.779Z,12.10
2019-01-25T21:13:52.606Z,12.57
2019-01-25T21:16:22.360Z,12.50
2019-01-25T21:18:51.999Z,13.20
2019-01-25T21:21:22.134Z,11.93
2019-01-25T21:23:51.860Z,11.70
2019-01-25T21:26:21.972Z,11.70
2019-01-25T21:28:51.582Z,11.50
2019-01-25T21:31:21.339Z,12.53
2019-01-25T21:33:51.082Z,11.97
2019-01-25T21:36:20.710Z,11.43
2019-01-25T21:38:50.442Z,11.57
2019-01-25T21:41:20.519Z,10.60
2019-01-25T21:43:50.540Z,11.13
2019-01-25T21:46:20.267Z,10.50
2019-01-25T21:48:49.898Z,10.20
2019-01-25T21:51:19.668Z,10.80
2019-01-25T21:53:49.283Z,11.27
2019-01-25T21:56:19.099Z,11.17
2019-01-25T21:58:48.721Z,10.00
2019-01-25T22:01:18.462Z,10.93
2019-01-25T22:03:48.233Z,10.70
2019-01-25T22:06:18.106Z,10.03
2019-01-25T22:08:48.133Z,10.10
2019-01-25T22:11:17.978Z,10.07
2019-01-25T22:13:52.747Z,10.60
2019-01-25T22:16:19.745Z,10.30
2019-01-25T22:18:49.750Z,10.33
2019-01-25T22:21:19.453Z,9.97
2019-01-25T22:23:49.149Z,10.33
2019-01-25T22:26:18.904Z,10.87
2019-01-25T22:28:51.215Z,10.00
2019-01-25T22:31:21.811Z,10.07
2019-01-25T22:33:51.805Z,9.50
2019-01-25T22:36:21.437Z,9.27
2019-01-25T22:38:51.207Z,9.83
2019-01-25T22:41:20.886Z,9.77
2019-01-25T22:43:50.615Z,10.17
2019-01-25T22:46:20.388Z,10.37
2019-01-25T22:48:50.151Z,9.87
2019-01-25T22:51:19.905Z,9.63
2019-01-25T22:53:49.618Z,10.13
2019-01-25T22:56:19.322Z,9.60
2019-01-25T22:58:49.042Z,9.30
2019-01-25T23:01:22.037Z,9.23
2019-01-25T23:04:00.895Z,9.10
2019-01-25T23:06:36.947Z,9.60
2019-01-25T23:09:15.980Z,9.60
2019-01-25T23:11:45.674Z,10.37
2019-01-25T23:14:15.437Z,9.63
2019-01-25T23:16:45.302Z,9.77
2019-01-25T23:19:15.056Z,9.93
2019-01-25T23:21:44.743Z,9.30
2019-01-25T23:24:14.509Z,9.10
2019-01-25T23:26:44.239Z,9.67
2019-01-25T23:29:13.979Z,9.43
2019-01-25T23:31:44.095Z,9.73
2019-01-25T23:34:13.835Z,9.30
2019-01-25T23:37:02.829Z,9.70
2019-01-25T23:39:32.531Z,9.93
2019-01-25T23:42:02.221Z,9.70
2019-01-25T23:44:32.014Z,9.87
2019-01-25T23:47:01.765Z,9.90
2019-01-25T23:49:31.531Z,10.17
2019-01-25T23:52:01.198Z,9.90
2019-01-25T23:54:30.840Z,10.30
2019-01-25T23:57:00.585Z,10.50
2019-01-25T23:59:30.323Z,10.03
